Time;durP1;ratioP1;P1;durP2;ratioP2;P2;SDS_P1;SDS_P2;PMS_P1;PMS_P2;Temp;Humidity;BMP_temperature;BMP_pressure;BME280_temperature;BME280_humidity;BME280_pressure;Samples;Min_cycle;Max_cycle;Signal;HPM_P1;HPM_P2
2023/09/29 00:00:16;;;;;;;9.23;3.15;;;13.60;99.90;;;;;;5044140;28;20049;-58
2023/09/29 00:02:46;;;;;;;16.98;3.72;;;13.60;99.90;;;;;;5029514;28;20046;-59
2023/09/29 00:05:17;;;;;;;11.88;3.00;;;13.50;99.90;;;;;;5039708;28;20041;-59
2023/09/29 00:07:46;;;;;;;10.23;3.28;;;13.50;99.90;;;;;;5025446;28;20053;-58
2023/09/29 00:10:20;;;;;;;8.10;2.92;;;13.50;99.90;;;;;;5047693;28;20053;-58
2023/09/29 00:12:49;;;;;;;11.35;3.08;;;13.50;99.90;;;;;;5015541;28;20049;-58
2023/09/29 00:15:18;;;;;;;11.68;3.22;;;13.40;99.90;;;;;;5051042;28;20045;-58
2023/09/29 00:17:46;;;;;;;10.67;3.73;;;13.40;99.90;;;;;;5049932;28;20067;-58
2023/09/29 00:22:42;;;;;;;10.75;3.50;;;13.40;99.90;;;;;;5031421;28;20061;-58
2023/09/29 00:25:09;;;;;;;8.95;3.28;;;13.40;99.90;;;;;;4994016;28;20073;-58
2023/09/29 00:27:37;;;;;;;12.65;3.70;;;13.40;99.90;;;;;;5011136;28;20041;-58
2023/09/29 00:30:07;;;;;;;10.77;3.42;;;13.40;99.90;;;;;;5019083;28;20061;-58
2023/09/29 00:32:35;;;;;;;11.63;3.45;;;13.30;99.90;;;;;;5029684;28;20060;-57
2023/09/29 00:35:05;;;;;;;10.07;2.90;;;13.30;99.90;;;;;;5030656;28;20049;-57
2023/09/29 00:37:32;;;;;;;8.98;3.38;;;13.30;99.90;;;;;;5029323;28;20045;-58
2023/09/29 00:40:01;;;;;;;11.32;3.42;;;13.20;99.90;;;;;;5017706;28;20064;-58
2023/09/29 00:42:31;;;;;;;;;;;13.20;99.90;;;;;;5015325;28;20056;-59
2023/09/29 00:45:00;;;;;;;10.80;3.30;;;13.10;99.90;;;;;;5029335;28;19924;-58
2023/09/29 00:47:29;;;;;;;10.70;2.80;;;13.10;99.90;;;;;;5030527;28;20053;-57
2023/09/29 00:49:57;;;;;;;6.15;2.53;;;13.00;99.90;;;;;;5047805;28;20044;-58
2023/09/29 00:52:27;;;;;;;12.82;3.20;;;13.00;99.90;;;;;;5048447;28;20044;-58
2023/09/29 00:54:56;;;;;;;12.65;3.10;;;13.00;99.90;;;;;;5009599;28;20045;-58
2023/09/29 00:57:24;;;;;;;10.93;3.10;;;12.90;99.90;;;;;;5042259;28;20054;-58
2023/09/29 00:59:52;;;;;;;13.43;3.47;;;13.00;99.90;;;;;;5030954;28;20306;-57
2023/09/29 01:02:21;;;;;;;14.40;3.85;;;13.00;99.90;;;;;;5045231;28;20485;-58
2023/09/29 01:04:49;;;;;;;12.95;4.25;;;13.00;99.90;;;;;;5037747;28;20053;-58
2023/09/29 01:07:16;;;;;;;10.98;4.57;;;13.10;99.90;;;;;;5028197;28;20045;-58
2023/09/29 01:09:44;;;;;;;13.82;4.00;;;13.10;99.90;;;;;;5017162;28;20667;-58
2023/09/29 01:12:25;;;;;;;13.43;3.83;;;13.20;99.90;;;;;;5009979;28;20046;-58
2023/09/29 01:14:53;;;;;;;16.80;4.32;;;13.20;99.90;;;;;;5029616;28;20051;-57
2023/09/29 01:17:24;;;;;;;13.63;3.58;;;13.20;99.90;;;;;;5029687;28;20424;-58
2023/09/29 01:19:52;;;;;;;16.05;3.67;;;13.20;99.90;;;;;;5030631;28;20512;-59
2023/09/29 01:22:21;;;;;;;11.85;3.65;;;13.30;99.90;;;;;;5045947;28;20590;-59
2023/09/29 01:24:48;;;;;;;9.45;3.30;;;13.30;99.90;;;;;;5015186;28;20505;-59
2023/09/29 01:27:16;;;;;;;9.75;3.60;;;13.30;99.90;;;;;;5015175;28;20385;-58
2023/09/29 01:29:44;;;;;;;16.40;3.90;;;13.30;99.90;;;;;;5026979;28;20053;-58
2023/09/29 01:32:12;;;;;;;10.13;3.95;;;13.40;99.90;;;;;;5016733;28;20038;-58
2023/09/29 01:34:40;;;;;;;12.27;3.60;;;13.40;99.90;;;;;;5015821;28;20056;-58
2023/09/29 01:37:08;;;;;;;16.30;3.80;;;13.40;99.90;;;;;;5032898;28;20477;-58
2023/09/29 01:39:35;;;;;;;14.10;4.10;;;13.50;99.90;;;;;;5050822;28;20042;-58
2023/09/29 01:42:07;;;;;;;8.82;3.17;;;13.50;99.90;;;;;;5031543;28;20052;-58
2023/09/29 01:44:35;;;;;;;8.38;3.50;;;13.50;99.90;;;;;;5031223;28;20049;-58
2023/09/29 01:47:02;;;;;;;15.55;4.53;;;13.50;99.90;;;;;;5029863;28;20045;-58
2023/09/29 01:49:30;;;;;;;11.73;3.92;;;13.50;99.90;;;;;;5031359;28;20048;-59
2023/09/29 01:51:58;;;;;;;11.68;3.70;;;13.50;99.90;;;;;;5032682;28;20060;-59
2023/09/29 01:54:26;;;;;;;12.05;3.67;;;13.50;99.90;;;;;;5031700;28;20048;-59
2023/09/29 01:56:54;;;;;;;13.68;4.03;;;13.50;99.90;;;;;;5032283;28;20045;-59
2023/09/29 01:59:22;;;;;;;13.55;4.28;;;13.60;99.90;;;;;;5030207;28;20053;-63
2023/09/29 02:01:50;;;;;;;16.90;4.18;;;13.60;99.90;;;;;;5045694;28;20051;-59
2023/09/29 02:04:18;;;;;;;8.45;3.90;;;13.60;99.90;;;;;;5051028;28;20049;-58
2023/09/29 02:06:46;;;;;;;12.52;4.20;;;13.60;99.90;;;;;;5051956;28;20048;-59
2023/09/29 02:09:13;;;;;;;8.55;4.40;;;13.60;99.90;;;;;;5046960;28;20037;-59
2023/09/29 02:11:42;;;;;;;9.93;3.88;;;13.60;99.90;;;;;;5032038;28;20057;-59
2023/09/29 02:14:09;;;;;;;10.73;3.80;;;13.60;99.90;;;;;;5031636;28;20049;-60
2023/09/29 02:16:40;;;;;;;10.80;4.10;;;13.60;99.90;;;;;;5031275;28;20045;-59
2023/09/29 02:19:10;;;;;;;12.80;3.67;;;13.60;99.90;;;;;;5030859;28;20494;-59
2023/09/29 02:21:37;;;;;;;12.15;4.13;;;13.60;99.90;;;;;;5032352;28;20048;-58
2023/09/29 02:24:06;;;;;;;11.82;3.88;;;13.50;99.90;;;;;;5032002;28;20053;-59
2023/09/29 02:26:34;;;;;;;14.20;3.88;;;13.60;99.90;;;;;;5030892;28;20378;-59
2023/09/29 02:29:02;;;;;;;10.30;3.92;;;13.60;99.90;;;;;;5031696;28;20053;-59
2023/09/29 02:31:30;;;;;;;16.55;4.13;;;13.60;99.90;;;;;;5042612;28;20057;-59
2023/09/29 02:33:58;;;;;;;13.07;3.67;;;13.60;99.90;;;;;;5050370;28;20063;-60
2023/09/29 02:36:25;;;;;;;8.30;3.60;;;13.60;99.90;;;;;;5033166;28;20057;-60
2023/09/29 02:38:53;;;;;;;8.95;3.70;;;13.60;99.90;;;;;;5031094;28;20045;-60
2023/09/29 02:41:21;;;;;;;12.38;4.10;;;13.60;99.90;;;;;;5035354;28;20037;-58
2023/09/29 02:43:49;;;;;;;8.05;3.33;;;13.60;99.90;;;;;;5051467;28;20045;-58
2023/09/29 02:46:16;;;;;;;12.77;4.38;;;13.60;99.90;;;;;;5048073;28;20045;-58
2023/09/29 02:48:44;;;;;;;10.35;3.65;;;13.60;99.90;;;;;;5031791;28;20057;-58
2023/09/29 02:51:19;;;;;;;13.65;3.95;;;13.60;99.90;;;;;;5031682;28;20050;-58
2023/09/29 02:53:51;;;;;;;13.73;4.28;;;13.70;99.90;;;;;;5031446;28;20049;-58
2023/09/29 02:56:19;;;;;;;12.75;3.45;;;13.60;99.90;;;;;;5031752;28;20046;-58
2023/09/29 02:58:47;;;;;;;20.67;3.95;;;13.60;99.90;;;;;;5030074;28;20064;-58
2023/09/29 03:01:18;;;;;;;14.95;3.83;;;13.60;99.90;;;;;;5036089;28;20033;-57
2023/09/29 03:03:47;;;;;;;13.80;4.60;;;13.60;99.90;;;;;;5031643;28;20052;-57
2023/09/29 03:06:20;;;;;;;15.02;4.15;;;13.60;99.90;;;;;;5031224;28;20046;-58
2023/09/29 03:08:56;;;;;;;15.20;3.92;;;13.60;99.90;;;;;;5031368;28;20504;-57
2023/09/29 03:11:24;;;;;;;22.77;4.70;;;13.60;99.90;;;;;;5030184;28;20084;-58
2023/09/29 03:13:55;;;;;;;17.77;4.28;;;13.60;99.90;;;;;;5031335;28;20056;-58
2023/09/29 03:16:26;;;;;;;15.60;4.32;;;13.60;99.90;;;;;;5030255;28;20054;-58
2023/09/29 03:18:55;;;;;;;19.00;4.38;;;13.50;99.90;;;;;;5030161;28;20049;-58
2023/09/29 03:21:23;;;;;;;18.77;3.65;;;13.50;99.90;;;;;;5030126;28;20049;-58
2023/09/29 03:23:51;;;;;;;14.82;3.13;;;13.50;99.90;;;;;;5031453;28;20050;-58
2023/09/29 03:26:22;;;;;;;14.13;3.50;;;13.50;99.90;;;;;;5031275;28;20069;-58
2023/09/29 03:28:50;;;;;;;12.80;3.45;;;13.50;99.90;;;;;;5036627;28;20060;-58
2023/09/29 03:31:22;;;;;;;18.02;4.07;;;13.50;99.90;;;;;;5044404;28;20040;-58
2023/09/29 03:33:51;;;;;;;12.23;3.88;;;13.50;99.90;;;;;;5039836;28;20053;-58
2023/09/29 03:36:23;;;;;;;12.45;3.45;;;13.40;99.90;;;;;;5031001;28;20050;-58
2023/09/29 03:38:51;;;;;;;13.23;4.22;;;13.40;99.90;;;;;;5030683;28;20049;-58
2023/09/29 03:41:18;;;;;;;20.95;4.50;;;13.40;99.90;;;;;;5030772;28;20057;-58
2023/09/29 03:43:46;;;;;;;11.38;4.57;;;13.40;99.90;;;;;;5030946;28;20050;-58
2023/09/29 03:46:20;;;;;;;15.57;4.45;;;13.40;99.90;;;;;;5032976;28;20056;-58
2023/09/29 03:48:48;;;;;;;13.57;5.05;;;13.40;99.90;;;;;;5034869;28;20052;-58
2023/09/29 03:51:26;;;;;;;15.02;3.85;;;13.30;99.90;;;;;;5034742;28;20046;-58
2023/09/29 03:53:55;;;;;;;11.93;4.20;;;13.30;99.90;;;;;;5034991;28;20045;-58
2023/09/29 03:56:23;;;;;;;12.23;4.32;;;13.20;99.90;;;;;;5034886;28;20046;-58
2023/09/29 03:58:55;;;;;;;12.57;4.55;;;13.10;99.90;;;;;;5034625;28;20432;-58
2023/09/29 04:01:23;;;;;;;17.23;4.50;;;13.10;99.90;;;;;;5043733;28;20045;-58
2023/09/29 04:03:50;;;;;;;15.55;4.25;;;13.00;99.90;;;;;;5043673;28;20045;-58
2023/09/29 04:06:18;;;;;;;21.10;5.38;;;12.90;99.90;;;;;;5034552;28;20073;-58
2023/09/29 04:08:47;;;;;;;22.35;5.18;;;12.80;99.90;;;;;;5034838;28;20574;-58
2023/09/29 04:11:14;;;;;;;15.60;4.80;;;12.80;99.90;;;;;;5033379;28;20049;-58
2023/09/29 04:13:43;;;;;;;14.60;6.10;;;12.80;99.90;;;;;;5032889;28;20049;-58
2023/09/29 04:16:12;;;;;;;18.38;5.88;;;12.70;99.90;;;;;;5032644;28;20489;-58
2023/09/29 04:18:40;;;;;;;21.48;5.70;;;12.60;99.90;;;;;;5034263;28;20633;-60
2023/09/29 04:21:15;;;;;;;22.08;5.30;;;12.60;99.90;;;;;;5033367;28;20064;-58
2023/09/29 04:23:47;;;;;;;15.80;5.63;;;12.50;99.90;;;;;;5033174;28;20052;-58
2023/09/29 04:26:16;;;;;;;15.85;4.68;;;12.50;99.90;;;;;;5034267;28;20053;-59
2023/09/29 04:28:44;;;;;;;20.42;4.53;;;12.40;99.90;;;;;;5034065;28;20045;-59
2023/09/29 04:31:16;;;;;;;18.17;4.78;;;12.30;99.90;;;;;;5041739;28;20072;-58
2023/09/29 04:33:44;;;;;;;15.32;4.03;;;12.30;99.90;;;;;;5044603;28;20046;-59
2023/09/29 04:36:12;;;;;;;19.50;5.15;;;12.20;99.90;;;;;;5033859;28;20045;-59
2023/09/29 04:38:41;;;;;;;23.95;4.57;;;12.20;99.90;;;;;;5034090;28;20053;-59
2023/09/29 04:41:09;;;;;;;17.42;4.25;;;12.10;99.90;;;;;;5034198;28;20053;-58
2023/09/29 04:43:36;;;;;;;18.50;4.10;;;12.10;99.90;;;;;;5033920;28;20045;-58
2023/09/29 04:46:04;;;;;;;16.58;4.72;;;12.00;99.90;;;;;;5033911;28;20366;-58
2023/09/29 04:48:32;;;;;;;18.80;4.20;;;12.00;99.90;;;;;;5034749;28;20064;-58
2023/09/29 04:51:00;;;;;;;15.15;3.85;;;11.80;99.90;;;;;;5011569;28;20045;-58
2023/09/29 04:53:28;;;;;;;12.65;4.03;;;11.90;99.90;;;;;;5017873;28;20045;-60
2023/09/29 04:55:59;;;;;;;16.92;3.65;;;11.80;99.90;;;;;;5030825;28;20608;-59
2023/09/29 04:58:27;;;;;;;16.63;3.65;;;11.70;99.90;;;;;;5029938;28;20057;-58
2023/09/29 05:00:55;;;;;;;14.52;3.70;;;11.70;99.90;;;;;;5032530;28;20064;-58
2023/09/29 05:03:23;;;;;;;19.60;3.80;;;11.60;99.90;;;;;;5014485;28;20050;-59
2023/09/29 05:05:51;;;;;;;17.23;3.83;;;11.60;99.90;;;;;;5050997;28;20058;-59
2023/09/29 05:08:19;;;;;;;15.82;3.85;;;11.50;99.90;;;;;;5038189;28;20049;-59
2023/09/29 05:10:47;;;;;;;14.55;3.83;;;11.40;99.90;;;;;;5048288;28;20662;-59
2023/09/29 05:13:15;;;;;;;10.45;3.22;;;11.40;99.90;;;;;;5039268;28;20045;-58
2023/09/29 05:15:43;;;;;;;16.52;3.85;;;11.40;99.90;;;;;;5027362;28;20513;-58
2023/09/29 05:18:11;;;;;;;15.10;3.90;;;11.30;99.90;;;;;;5036213;28;20500;-57
2023/09/29 05:20:39;;;;;;;14.63;3.97;;;11.20;99.90;;;;;;5009456;28;20513;-57
2023/09/29 05:23:06;;;;;;;14.73;3.85;;;11.20;99.90;;;;;;5012232;28;20747;-57
2023/09/29 05:25:37;;;;;;;20.63;3.58;;;11.10;99.90;;;;;;5027149;28;20057;-57
2023/09/29 05:28:04;;;;;;;18.48;3.70;;;11.10;99.90;;;;;;5029632;28;20049;-57
2023/09/29 05:30:34;;;;;;;17.02;4.35;;;11.00;99.90;;;;;;5029673;28;20071;-57
2023/09/29 05:33:03;;;;;;;15.10;3.50;;;10.90;99.90;;;;;;5028735;28;20046;-57
2023/09/29 05:35:31;;;;;;;17.63;4.10;;;10.90;99.90;;;;;;5017073;28;20078;-57
2023/09/29 05:37:59;;;;;;;19.95;3.85;;;10.80;99.90;;;;;;5026184;28;20406;-57
2023/09/29 05:40:26;;;;;;;17.70;3.97;;;10.80;99.90;;;;;;5029501;28;20063;-57
2023/09/29 05:42:55;;;;;;;19.77;3.85;;;10.70;99.90;;;;;;5029219;28;20048;-57
2023/09/29 05:45:23;;;;;;;15.40;4.43;;;10.70;99.90;;;;;;5029621;28;20541;-57
2023/09/29 05:47:51;;;;;;;18.05;4.32;;;10.70;99.90;;;;;;5029787;28;20037;-57
2023/09/29 05:50:20;;;;;;;15.38;3.88;;;10.60;99.90;;;;;;5012375;28;20045;-57
2023/09/29 05:52:48;;;;;;;10.57;3.95;;;10.50;99.90;;;;;;5008617;28;20068;-57
2023/09/29 05:55:39;;;;;;;19.73;4.07;;;10.50;99.90;;;;;;5026039;28;20061;-57
2023/09/29 05:58:07;;;;;;;17.40;4.38;;;10.50;99.90;;;;;;5026126;28;20413;-57
2023/09/29 06:00:36;;;;;;;15.27;3.92;;;10.40;99.90;;;;;;5028962;28;20052;-57
2023/09/29 06:03:05;;;;;;;19.35;3.85;;;10.40;99.90;;;;;;5028756;28;20064;-57
2023/09/29 06:05:33;;;;;;;21.10;4.60;;;10.40;99.90;;;;;;5021922;28;20046;-57
2023/09/29 06:08:01;;;;;;;22.50;4.55;;;10.40;99.90;;;;;;5060285;28;20045;-57
2023/09/29 06:10:28;;;;;;;22.95;4.57;;;10.30;99.90;;;;;;5029248;28;20052;-57
2023/09/29 06:12:56;;;;;;;15.93;4.18;;;10.30;99.90;;;;;;5027475;28;20534;-57
2023/09/29 06:15:24;;;;;;;21.73;4.95;;;10.30;99.90;;;;;;5028791;28;20046;-57
2023/09/29 06:17:51;;;;;;;16.85;4.15;;;10.30;99.90;;;;;;5027586;28;20045;-58
2023/09/29 06:20:19;;;;;;;22.25;4.25;;;10.30;99.90;;;;;;5013985;28;20545;-57
2023/09/29 06:22:47;;;;;;;19.08;4.30;;;10.20;99.90;;;;;;5008313;28;20929;-57
2023/09/29 06:25:15;;;;;;;11.40;3.30;;;10.20;99.90;;;;;;5025943;28;20053;-57
2023/09/29 06:27:43;;;;;;;19.75;4.50;;;10.20;99.90;;;;;;5028804;28;20046;-57
2023/09/29 06:30:11;;;;;;;15.80;4.40;;;10.20;99.90;;;;;;5019933;28;20053;-57
2023/09/29 06:32:41;;;;;;;30.67;5.40;;;10.20;99.90;;;;;;5031212;28;20049;-57
2023/09/29 06:35:10;;;;;;;17.35;3.30;;;10.20;99.90;;;;;;5023138;28;20397;-57
2023/09/29 06:37:38;;;;;;;12.68;3.90;;;10.30;99.90;;;;;;5013852;28;20037;-57
2023/09/29 06:40:10;;;;;;;14.32;3.58;;;10.30;99.90;;;;;;5038394;28;20324;-57
2023/09/29 06:42:38;;;;;;;15.60;3.53;;;10.30;99.90;;;;;;5016753;28;20053;-57
2023/09/29 06:45:07;;;;;;;16.80;3.25;;;10.30;99.90;;;;;;5045139;28;20052;-57
2023/09/29 06:47:35;;;;;;;9.97;3.37;;;10.30;99.90;;;;;;5044080;28;20041;-57
2023/09/29 06:50:03;;;;;;;15.85;3.85;;;10.40;99.90;;;;;;5017088;28;20325;-58
2023/09/29 06:52:31;;;;;;;10.23;2.70;;;10.40;99.90;;;;;;5007473;28;20077;-57
2023/09/29 06:54:59;;;;;;;17.80;3.80;;;10.40;99.90;;;;;;5008901;28;20046;-57
2023/09/29 06:57:27;;;;;;;13.75;3.60;;;10.50;99.90;;;;;;5009877;28;20518;-57
2023/09/29 06:59:55;;;;;;;12.85;3.20;;;10.50;99.90;;;;;;5028123;28;20916;-57
2023/09/29 07:02:22;;;;;;;14.48;3.28;;;10.60;99.90;;;;;;5022607;28;20049;-57
2023/09/29 07:04:51;;;;;;;14.50;3.03;;;10.60;99.90;;;;;;5032005;28;20537;-57
2023/09/29 07:07:19;;;;;;;15.77;3.28;;;10.70;99.90;;;;;;5013209;28;20058;-57
2023/09/29 07:09:47;;;;;;;11.48;2.72;;;10.70;99.90;;;;;;5028199;28;20052;-57
2023/09/29 07:12:15;;;;;;;12.82;3.00;;;10.80;99.90;;;;;;5020929;28;20053;-57
2023/09/29 07:14:42;;;;;;;13.07;2.65;;;10.80;99.90;;;;;;5017306;28;20061;-57
2023/09/29 07:17:11;;;;;;;13.27;3.90;;;10.90;99.90;;;;;;5007351;28;20474;-57
2023/09/29 07:19:39;;;;;;;9.82;3.10;;;10.90;99.90;;;;;;5022926;28;20052;-57
2023/09/29 07:22:12;;;;;;;17.55;3.20;;;11.00;99.90;;;;;;5008704;28;20037;-57
2023/09/29 07:24:41;;;;;;;14.13;3.60;;;11.00;99.90;;;;;;5025171;28;20041;-58
2023/09/29 07:27:12;;;;;;;11.73;2.75;;;11.10;99.90;;;;;;5028419;28;20049;-58
2023/09/29 07:29:39;;;;;;;9.27;3.35;;;11.10;99.90;;;;;;5011336;28;20041;-58
2023/09/29 07:32:10;;;;;;;12.38;3.40;;;11.20;99.90;;;;;;5035239;28;20060;-57
2023/09/29 07:34:38;;;;;;;11.88;3.30;;;11.20;99.90;;;;;;5025962;28;20057;-57
2023/09/29 07:37:06;;;;;;;11.40;3.28;;;11.20;99.90;;;;;;5012745;28;20056;-57
2023/09/29 07:39:34;;;;;;;12.10;2.85;;;11.30;99.90;;;;;;5027743;28;20053;-58
2023/09/29 07:42:01;;;;;;;17.88;2.92;;;11.40;99.90;;;;;;5024975;28;20050;-58
2023/09/29 07:44:33;;;;;;;11.88;2.75;;;11.40;99.90;;;;;;5032432;28;20037;-58
2023/09/29 07:47:01;;;;;;;15.55;4.15;;;11.50;99.90;;;;;;5023580;28;20501;-58
2023/09/29 07:49:28;;;;;;;13.00;3.30;;;11.60;99.90;;;;;;5023590;28;20494;-56
2023/09/29 07:51:57;;;;;;;14.57;3.47;;;11.60;99.90;;;;;;5022724;28;20050;-56
2023/09/29 07:54:25;;;;;;;13.57;2.80;;;11.70;99.90;;;;;;5026947;28;20049;-57
2023/09/29 07:56:52;;;;;;;14.88;3.53;;;11.80;99.90;;;;;;5016299;28;20045;-57
2023/09/29 07:59:20;;;;;;;16.98;3.85;;;11.90;99.90;;;;;;5014187;28;20409;-57
2023/09/29 08:01:49;;;;;;;16.70;3.65;;;11.90;99.90;;;;;;5031003;28;20445;-57
2023/09/29 08:04:17;;;;;;;17.48;3.40;;;11.90;99.90;;;;;;5023788;28;20050;-58
2023/09/29 08:06:46;;;;;;;14.45;3.20;;;12.00;99.90;;;;;;5009894;28;20061;-58
2023/09/29 08:09:13;;;;;;;11.45;3.05;;;12.00;99.90;;;;;;5024588;28;20050;-58
2023/09/29 08:11:42;;;;;;;14.80;3.42;;;12.10;99.90;;;;;;5027244;28;20054;-58
2023/09/29 08:14:10;;;;;;;13.38;2.92;;;12.20;99.90;;;;;;5026168;28;20789;-58
2023/09/29 08:16:38;;;;;;;13.13;3.42;;;12.20;99.90;;;;;;5009921;28;20033;-59
2023/09/29 08:19:06;;;;;;;14.15;4.28;;;12.30;99.90;;;;;;5040096;28;20049;-58
2023/09/29 08:21:38;;;;;;;16.75;3.60;;;12.40;99.90;;;;;;5047370;28;20090;-59
2023/09/29 08:24:06;;;;;;;15.43;3.47;;;12.50;99.90;;;;;;5031659;28;20052;-59
2023/09/29 08:26:34;;;;;;;17.60;4.05;;;12.60;99.90;;;;;;5027723;28;20072;-58
2023/09/29 08:29:03;;;;;;;14.40;3.00;;;12.60;99.90;;;;;;5026945;28;20046;-58
2023/09/29 08:31:30;;;;;;;10.25;2.95;;;12.70;99.90;;;;;;5039508;28;20377;-58
2023/09/29 08:33:58;;;;;;;13.40;2.85;;;12.80;99.90;;;;;;5029589;28;20068;-58
2023/09/29 08:36:26;;;;;;;10.35;2.60;;;12.80;99.90;;;;;;5029507;28;20596;-58
2023/09/29 08:38:57;;;;;;;15.00;2.88;;;12.90;99.90;;;;;;5029459;28;20045;-58
2023/09/29 08:41:27;;;;;;;30.50;3.38;;;13.00;99.90;;;;;;5011260;28;20050;-59
2023/09/29 08:43:55;;;;;;;12.60;3.40;;;13.10;99.90;;;;;;5029783;28;20068;-58
2023/09/29 08:46:39;;;;;;;16.33;2.97;;;13.20;99.90;;;;;;5027860;28;20061;-58
2023/09/29 08:49:09;;;;;;;7.93;2.50;;;13.30;99.90;;;;;;5046344;28;20056;-59
2023/09/29 08:51:39;;;;;;;11.88;2.60;;;13.30;99.90;;;;;;5050551;28;20037;-58
2023/09/29 08:54:08;;;;;;;19.10;3.15;;;13.40;99.90;;;;;;5037341;28;20053;-59
2023/09/29 08:56:36;;;;;;;15.75;2.72;;;13.50;99.90;;;;;;5028310;28;20041;-58
2023/09/29 08:59:04;;;;;;;13.25;3.35;;;13.60;99.90;;;;;;5026503;28;20037;-58
2023/09/29 09:01:32;;;;;;;16.67;2.85;;;13.70;99.90;;;;;;5035584;28;20037;-58
2023/09/29 09:04:02;;;;;;;12.65;2.35;;;13.70;99.90;;;;;;5024939;28;20535;-58
2023/09/29 09:06:30;;;;;;;11.82;2.40;;;13.80;99.90;;;;;;5030127;28;20381;-58
2023/09/29 09:08:58;;;;;;;13.85;3.78;;;13.90;99.90;;;;;;5028723;28;20052;-58
2023/09/29 09:11:28;;;;;;;12.93;3.30;;;14.00;99.90;;;;;;5028452;28;20060;-58
2023/09/29 09:14:03;;;;;;;12.30;3.38;;;14.00;99.90;;;;;;5010134;28;20046;-58
2023/09/29 09:16:32;;;;;;;14.70;2.95;;;14.10;99.90;;;;;;5014338;28;20069;-58
2023/09/29 09:19:13;;;;;;;14.25;2.58;;;14.20;99.90;;;;;;5025089;28;20061;-58
2023/09/29 09:21:43;;;;;;;15.75;2.42;;;14.20;99.90;;;;;;5008873;28;20143;-59
2023/09/29 09:24:21;;;;;;;11.70;2.72;;;14.20;99.90;;;;;;5013336;28;20049;-58
2023/09/29 09:26:50;;;;;;;9.68;1.95;;;14.30;99.90;;;;;;5042360;28;20049;-59
2023/09/29 09:29:19;;;;;;;12.00;2.55;;;14.30;99.90;;;;;;5024564;28;20136;-57
2023/09/29 09:31:51;;;;;;;14.98;2.60;;;14.40;99.90;;;;;;5043055;28;20793;-59
2023/09/29 09:34:18;;;;;;;16.60;3.20;;;14.40;99.90;;;;;;5026938;28;20044;-58
2023/09/29 09:36:52;;;;;;;12.38;3.13;;;14.50;99.90;;;;;;5034114;28;20064;-57
2023/09/29 09:39:24;;;;;;;11.98;2.95;;;14.50;99.90;;;;;;5030446;28;20034;-58
2023/09/29 09:41:54;;;;;;;9.98;2.35;;;14.60;99.90;;;;;;5010021;28;20052;-58
2023/09/29 09:44:22;;;;;;;12.98;2.67;;;14.70;99.90;;;;;;5024013;28;20135;-59
2023/09/29 09:47:01;;;;;;;16.88;3.20;;;14.70;99.90;;;;;;5029746;28;20046;-58
2023/09/29 09:49:36;;;;;;;10.82;2.10;;;14.80;99.90;;;;;;5028116;28;20045;-58
2023/09/29 09:52:12;;;;;;;10.52;2.20;;;14.90;99.90;;;;;;5029355;28;20041;-58
2023/09/29 09:54:48;;;;;;;22.80;3.08;;;15.00;99.90;;;;;;5042169;28;20049;-60
2023/09/29 09:57:22;;;;;;;14.02;2.10;;;15.20;99.90;;;;;;5027136;28;20567;-59
2023/09/29 09:59:52;;;;;;;9.18;1.98;;;15.30;99.90;;;;;;5043941;28;20057;-58
2023/09/29 10:02:21;;;;;;;14.43;3.23;;;15.30;99.90;;;;;;5042881;28;20053;-58
2023/09/29 10:04:54;;;;;;;11.65;2.00;;;15.40;99.90;;;;;;5024660;28;20049;-58
2023/09/29 10:07:21;;;;;;;10.48;1.90;;;15.50;99.90;;;;;;5028685;28;20053;-58
2023/09/29 10:09:49;;;;;;;12.38;1.83;;;15.50;99.90;;;;;;5028958;28;20048;-59
2023/09/29 10:12:31;;;;;;;11.18;2.30;;;15.60;99.90;;;;;;5027236;28;20050;-58
2023/09/29 10:14:59;;;;;;;9.98;1.98;;;15.70;99.90;;;;;;5022903;28;20056;-58
2023/09/29 10:17:39;;;;;;;11.13;2.13;;;15.80;99.90;;;;;;5012165;28;20065;-58
2023/09/29 10:20:22;;;;;;;9.63;1.60;;;15.90;99.90;;;;;;5009455;28;20046;-58
2023/09/29 10:23:01;;;;;;;10.52;1.52;;;16.00;99.90;;;;;;5013970;28;20048;-58
2023/09/29 10:25:33;;;;;;;8.35;2.13;;;16.20;99.90;;;;;;5017260;28;20050;-58
2023/09/29 10:28:06;;;;;;;;;;;16.40;99.90;;;;;;5015770;28;20437;-58
2023/09/29 10:30:35;;;;;;;10.50;2.25;;;16.50;99.90;;;;;;5032029;28;20368;-59
2023/09/29 10:33:13;;;;;;;8.40;1.63;;;16.70;99.90;;;;;;5018841;28;20066;-58
2023/09/29 10:35:47;;;;;;;11.40;1.48;;;16.80;99.90;;;;;;5016213;28;20038;-58
2023/09/29 10:38:29;;;;;;;8.13;2.20;;;17.00;99.90;;;;;;5025675;28;20044;-58
2023/09/29 10:40:58;;;;;;;8.07;1.77;;;17.10;99.90;;;;;;5034819;28;20052;-58
2023/09/29 10:43:26;;;;;;;11.30;1.77;;;17.10;99.90;;;;;;5009672;28;20064;-58
2023/09/29 10:45:56;;;;;;;11.10;1.85;;;17.10;99.90;;;;;;5005249;28;20398;-60
2023/09/29 10:48:26;;;;;;;10.07;1.40;;;17.10;99.90;;;;;;5012324;28;20072;-59
2023/09/29 10:50:54;;;;;;;6.55;0.93;;;17.00;99.90;;;;;;5008635;28;20490;-59
2023/09/29 10:53:22;;;;;;;3.88;0.80;;;17.10;99.90;;;;;;5021627;28;20404;-60
2023/09/29 10:55:54;;;;;;;7.40;1.00;;;16.90;99.90;;;;;;5018814;28;20834;-60
2023/09/29 10:58:21;;;;;;;6.70;1.40;;;16.90;99.90;;;;;;5017745;28;20050;-60
2023/09/29 11:00:51;;;;;;;8.50;1.63;;;16.80;99.90;;;;;;5026769;28;20076;-59
2023/09/29 11:03:22;;;;;;;7.40;1.27;;;16.90;99.90;;;;;;5019186;28;20045;-59
2023/09/29 11:05:52;;;;;;;7.50;1.20;;;16.90;99.90;;;;;;5025458;28;20045;-60
2023/09/29 11:08:28;;;;;;;9.10;1.75;;;17.00;99.90;;;;;;5026729;28;20052;-59
2023/09/29 11:11:00;;;;;;;7.78;1.45;;;17.10;99.90;;;;;;5005881;28;20045;-59
2023/09/29 11:13:28;;;;;;;10.88;1.95;;;17.10;99.90;;;;;;5020319;28;20060;-60
2023/09/29 11:15:58;;;;;;;6.97;1.27;;;17.20;99.90;;;;;;5021421;28;20057;-60
2023/09/29 11:18:27;;;;;;;9.63;1.65;;;17.40;99.90;;;;;;5023066;28;20056;-59
2023/09/29 11:20:58;;;;;;;5.80;0.70;;;17.50;99.90;;;;;;5027655;28;20072;-60
2023/09/29 11:23:28;;;;;;;6.75;1.10;;;17.60;99.90;;;;;;5023870;28;20627;-61
2023/09/29 11:26:06;;;;;;;7.03;1.00;;;17.70;99.90;;;;;;5007907;28;20584;-59
2023/09/29 11:28:40;;;;;;;7.10;1.13;;;17.80;99.90;;;;;;5041391;28;20042;-60
2023/09/29 11:31:12;;;;;;;11.55;2.00;;;17.80;99.90;;;;;;5006927;28;20045;-60
2023/09/29 11:33:40;;;;;;;6.85;1.15;;;18.00;99.90;;;;;;5030866;28;20045;-60
2023/09/29 11:36:23;;;;;;;5.93;0.82;;;18.10;99.90;;;;;;5025284;28;20041;-60
2023/09/29 11:38:51;;;;;;;6.43;0.75;;;18.20;99.90;;;;;;5027912;28;20556;-60
2023/09/29 11:41:22;;;;;;;5.35;0.75;;;18.30;99.90;;;;;;5025390;28;20037;-60
2023/09/29 11:43:50;;;;;;;5.55;1.05;;;18.50;99.90;;;;;;5025398;28;20049;-60
2023/09/29 11:46:18;;;;;;;8.77;1.52;;;18.60;99.90;;;;;;5027745;28;20041;-60
2023/09/29 11:48:46;;;;;;;5.40;0.73;;;18.60;99.90;;;;;;5020390;28;20398;-60
2023/09/29 11:51:14;;;;;;;8.05;1.10;;;18.70;99.90;;;;;;5022829;28;20061;-60
2023/09/29 11:53:43;;;;;;;5.93;0.93;;;18.70;99.90;;;;;;5026950;28;20052;-60
2023/09/29 11:56:12;;;;;;;;;;;18.80;99.90;;;;;;5022092;28;20038;-58
2023/09/29 11:58:39;;;;;;;3.17;0.75;;;18.80;99.90;;;;;;5016853;28;19925;-60
2023/09/29 12:01:08;;;;;;;5.45;0.65;;;18.90;99.90;;;;;;5024431;28;20038;-59
2023/09/29 12:03:37;;;;;;;5.15;0.85;;;18.90;99.90;;;;;;5026718;28;20057;-59
2023/09/29 12:06:05;;;;;;;4.20;0.80;;;19.20;99.90;;;;;;5023929;28;20045;-59
2023/09/29 12:08:32;;;;;;;7.07;0.82;;;19.40;99.90;;;;;;5033815;28;20050;-59
2023/09/29 12:11:00;;;;;;;7.97;0.98;;;19.70;99.90;;;;;;5029285;28;20057;-59
2023/09/29 12:13:29;;;;;;;5.22;0.80;;;19.90;99.90;;;;;;5015470;28;20049;-59
2023/09/29 12:15:57;;;;;;;4.68;0.73;;;20.20;99.90;;;;;;5031308;28;20045;-60
2023/09/29 12:18:26;;;;;;;5.25;1.00;;;20.20;99.90;;;;;;5027637;28;20057;-60
2023/09/29 12:20:56;;;;;;;2.58;0.70;;;20.20;99.90;;;;;;5042684;28;20057;-60
2023/09/29 12:23:23;;;;;;;4.85;1.27;;;20.40;99.90;;;;;;5024249;28;20052;-60
2023/09/29 12:25:51;;;;;;;9.88;1.20;;;20.60;99.90;;;;;;5030025;28;20037;-60
2023/09/29 12:28:19;;;;;;;4.90;0.90;;;20.70;99.90;;;;;;5020000;28;20049;-61
2023/09/29 12:30:47;;;;;;;4.85;1.08;;;21.10;99.90;;;;;;5033419;28;20060;-61
2023/09/29 12:33:15;;;;;;;4.47;0.77;;;21.30;99.90;;;;;;5033280;28;20493;-62
2023/09/29 12:35:43;;;;;;;4.70;1.00;;;21.40;99.90;;;;;;5041705;28;20063;-61
2023/09/29 12:38:11;;;;;;;3.97;0.90;;;21.30;99.90;;;;;;5029068;28;20053;-61
2023/09/29 12:40:39;;;;;;;6.57;1.25;;;21.40;99.90;;;;;;5029425;28;20520;-61
2023/09/29 12:43:06;;;;;;;8.05;1.23;;;21.60;99.90;;;;;;5016612;28;20432;-61
2023/09/29 12:45:35;;;;;;;7.00;1.20;;;21.70;99.90;;;;;;5031215;28;20052;-61
2023/09/29 12:48:03;;;;;;;9.95;1.40;;;22.00;99.90;;;;;;5027968;28;20052;-61
2023/09/29 12:50:38;;;;;;;7.95;1.48;;;21.90;99.90;;;;;;5020251;28;20057;-60
2023/09/29 12:53:06;;;;;;;6.10;0.90;;;21.60;99.90;;;;;;5017707;28;20044;-60